createdAt,value
2023-03-28T00:00:41.477Z,-0.80
2023-03-28T00:03:09.423Z,-0.80
2023-03-28T00:05:41.134Z,-0.80
2023-03-28T00:08:11.910Z,-0.80
2023-03-28T00:10:39.689Z,-0.70
2023-03-28T00:13:07.795Z,-0.70
2023-03-28T00:15:40.152Z,-0.70
2023-03-28T00:18:11.494Z,-0.70
2023-03-28T00:20:40.050Z,-0.70
2023-03-28T00:23:09.537Z,-0.70
2023-03-28T00:25:41.680Z,-0.80
2023-03-28T00:28:09.959Z,-0.90
2023-03-28T00:30:37.995Z,-0.90
2023-03-28T00:33:06.230Z,-0.90
2023-03-28T00:35:34.412Z,-0.90
2023-03-28T00:38:03.324Z,-0.90
2023-03-28T00:40:38.739Z,-0.90
2023-03-28T00:43:06.615Z,-0.90
2023-03-28T00:45:34.809Z,-0.90
2023-03-28T00:48:14.274Z,-0.90
2023-03-28T00:50:48.638Z,-0.90
2023-03-28T00:53:19.783Z,-1.00
2023-03-28T00:55:52.322Z,-1.00
2023-03-28T00:58:25.173Z,-1.00
2023-03-28T01:00:54.811Z,-1.00
2023-03-28T01:03:27.680Z,-1.00
2023-03-28T01:05:56.612Z,-1.00
2023-03-28T01:08:27.190Z,-1.10
2023-03-28T01:10:56.353Z,-1.10
2023-03-28T01:13:28.905Z,-1.10
2023-03-28T01:15:57.194Z,-1.10
2023-03-28T01:18:25.488Z,-1.10
2023-03-28T01:21:10.369Z,-1.10
2023-03-28T01:24:11.877Z,-1.10
2023-03-28T01:26:53.417Z,-1.00
2023-03-28T01:30:02.395Z,-1.00
2023-03-28T01:33:11.188Z,-1.00
2023-03-28T01:36:07.123Z,-1.00
2023-03-28T01:38:40.780Z,-1.00
2023-03-28T01:41:15.304Z,-1.00
2023-03-28T01:43:52.431Z,-1.10
2023-03-28T01:46:23.994Z,-1.00
2023-03-28T01:49:00.827Z,-1.00
2023-03-28T01:51:37.506Z,-1.10
2023-03-28T01:54:14.571Z,-1.10
2023-03-28T01:56:50.379Z,-1.20
2023-03-28T01:59:22.486Z,-1.30
2023-03-28T02:01:55.110Z,-1.30
2023-03-28T02:04:26.602Z,-1.30
2023-03-28T02:06:56.897Z,-1.30
2023-03-28T02:09:27.655Z,-1.30
2023-03-28T02:12:00.655Z,-1.30
2023-03-28T02:14:32.224Z,-1.30
2023-03-28T02:17:04.599Z,-1.40
2023-03-28T02:19:37.831Z,-1.40
2023-03-28T02:22:12.318Z,-1.40
2023-03-28T02:24:41.502Z,-1.50
2023-03-28T02:27:09.432Z,-1.50
2023-03-28T02:29:40.620Z,-1.40
2023-03-28T02:32:08.542Z,-1.50
2023-03-28T02:34:36.786Z,-1.50
2023-03-28T02:37:16.104Z,-1.50
2023-03-28T02:39:53.312Z,-1.50
2023-03-28T02:42:47.784Z,-1.60
2023-03-28T02:45:30.272Z,-1.50
2023-03-28T02:48:08.892Z,-1.60
2023-03-28T02:50:43.401Z,-1.60
2023-03-28T02:53:15.725Z,-1.60
2023-03-28T02:55:54.392Z,-1.60
2023-03-28T02:58:27.509Z,-1.70
2023-03-28T03:00:55.500Z,-1.70
2023-03-28T03:03:25.869Z,-1.70
2023-03-28T03:05:53.757Z,-1.80
2023-03-28T03:08:21.594Z,-1.80
2023-03-28T03:10:50.793Z,-1.90
2023-03-28T03:13:18.592Z,-1.90
2023-03-28T03:15:46.509Z,-2.00
2023-03-28T03:18:14.367Z,-2.10
2023-03-28T03:20:45.745Z,-2.20
2023-03-28T03:23:14.532Z,-2.20
2023-03-28T03:25:43.178Z,-2.20
2023-03-28T03:28:12.953Z,-2.20
2023-03-28T03:30:40.873Z,-2.20
2023-03-28T03:33:10.376Z,-2.10
2023-03-28T03:35:38.561Z,-2.20
2023-03-28T03:38:06.871Z,-2.20
2023-03-28T03:40:34.736Z,-2.20
2023-03-28T03:43:02.571Z,-2.20
2023-03-28T03:45:31.822Z,-2.30
2023-03-28T03:47:59.647Z,-2.40
2023-03-28T03:50:27.513Z,-2.50
2023-03-28T03:52:55.390Z,-2.60
2023-03-28T03:55:23.213Z,-2.70
2023-03-28T03:57:51.036Z,-2.80
2023-03-28T04:00:19.849Z,-2.80
2023-03-28T04:02:49.641Z,-2.80
2023-03-28T04:05:17.600Z,-2.80
2023-03-28T04:07:45.392Z,-2.80
2023-03-28T04:10:13.221Z,-2.70
2023-03-28T04:12:41.036Z,-2.70
2023-03-28T04:15:09.990Z,-2.80
2023-03-28T04:17:37.913Z,-2.90
2023-03-28T04:20:12.327Z,-2.90
2023-03-28T04:22:46.224Z,-3.00
2023-03-28T04:25:14.749Z,-3.00
2023-03-28T04:27:47.120Z,-3.00
2023-03-28T04:30:18.012Z,-3.10
2023-03-28T04:32:49.468Z,-3.30
2023-03-28T04:35:18.961Z,-3.30
2023-03-28T04:37:47.436Z,-3.40
2023-03-28T04:40:17.735Z,-3.30
2023-03-28T04:42:45.852Z,-3.30
2023-03-28T04:45:15.034Z,-3.20
2023-03-28T04:47:44.446Z,-3.30
2023-03-28T04:50:13.583Z,-3.20
2023-03-28T04:52:42.740Z,-3.30
2023-03-28T04:55:11.184Z,-3.40
2023-03-28T04:57:39.000Z,-3.40
2023-03-28T05:00:10.419Z,-3.40
2023-03-28T05:02:38.422Z,-3.40
2023-03-28T05:05:07.790Z,-3.40
2023-03-28T05:07:36.724Z,-3.30
2023-03-28T05:10:07.582Z,-3.20
2023-03-28T05:12:35.966Z,-3.20
2023-03-28T05:15:03.844Z,-3.30
2023-03-28T05:17:31.700Z,-3.30
2023-03-28T05:19:59.725Z,-3.30
2023-03-28T05:22:27.551Z,-3.20
2023-03-28T05:24:55.376Z,-3.20
2023-03-28T05:27:24.488Z,-3.20
2023-03-28T05:29:52.623Z,-3.30
2023-03-28T05:32:20.401Z,-3.30
2023-03-28T05:34:48.286Z,-3.40
2023-03-28T05:37:16.715Z,-3.40
2023-03-28T05:39:44.504Z,-3.50
2023-03-28T05:42:12.307Z,-3.50
2023-03-28T05:44:41.507Z,-3.50
2023-03-28T05:47:09.505Z,-3.40
2023-03-28T05:49:37.387Z,-3.40
2023-03-28T05:52:05.405Z,-3.30
2023-03-28T05:54:33.264Z,-3.30
2023-03-28T05:57:01.111Z,-3.20
2023-03-28T05:59:28.989Z,-3.10
2023-03-28T06:01:58.550Z,-2.90
2023-03-28T06:04:28.015Z,-2.80
2023-03-28T06:06:56.098Z,-2.70
2023-03-28T06:09:24.028Z,-2.70
2023-03-28T06:11:51.986Z,-2.70
2023-03-28T06:14:20.967Z,-2.70
2023-03-28T06:16:48.886Z,-2.60
2023-03-28T06:19:18.823Z,-2.50
2023-03-28T06:21:46.994Z,-2.40
2023-03-28T06:24:15.003Z,-2.30
2023-03-28T06:26:42.845Z,-2.20
2023-03-28T06:29:12.105Z,-2.10
2023-03-28T06:31:40.147Z,-2.00
2023-03-28T06:34:07.969Z,-2.00
2023-03-28T06:36:37.190Z,-1.80
2023-03-28T06:39:05.513Z,-1.60
2023-03-28T06:41:33.311Z,-1.50
2023-03-28T06:44:09.248Z,-1.30
2023-03-28T06:46:37.125Z,-1.20
2023-03-28T06:49:05.175Z,-1.10
2023-03-28T06:51:33.028Z,-1.00
2023-03-28T06:54:02.223Z,-0.90
2023-03-28T06:56:30.345Z,-0.80
2023-03-28T06:58:58.244Z,-0.70
2023-03-28T07:01:26.092Z,-0.70
2023-03-28T07:03:53.984Z,-0.60
2023-03-28T07:06:21.972Z,-0.10
2023-03-28T07:08:49.913Z,0.30
2023-03-28T07:11:19.068Z,0.50
2023-03-28T07:13:46.931Z,1.30
2023-03-28T07:16:16.946Z,2.30
2023-03-28T07:18:45.267Z,2.70
2023-03-28T07:21:15.412Z,3.30
2023-03-28T07:23:44.594Z,3.60
2023-03-28T07:26:14.306Z,3.10
2023-03-28T07:28:43.706Z,2.40
2023-03-28T07:31:12.335Z,2.30
2023-03-28T07:33:40.822Z,2.20
2023-03-28T07:36:11.068Z,2.10
2023-03-28T07:38:38.950Z,1.90
2023-03-28T07:41:08.041Z,1.70
2023-03-28T07:43:37.462Z,1.60
2023-03-28T07:46:08.879Z,1.90
2023-03-28T07:48:37.617Z,2.40
2023-03-28T07:51:07.671Z,2.70
2023-03-28T07:53:36.030Z,2.40
2023-03-28T07:56:03.963Z,2.80
2023-03-28T07:58:31.979Z,2.80
2023-03-28T08:01:06.790Z,3.20
2023-03-28T08:03:34.880Z,3.10
2023-03-28T08:06:04.068Z,2.70
2023-03-28T08:08:32.511Z,2.80
2023-03-28T08:11:00.958Z,2.90
2023-03-28T08:13:28.965Z,3.60
2023-03-28T08:15:57.222Z,3.90
2023-03-28T08:18:26.537Z,3.80
2023-03-28T08:21:01.170Z,3.70
2023-03-28T08:23:29.416Z,4.10
2023-03-28T08:26:06.180Z,3.80
2023-03-28T08:28:35.096Z,4.20
2023-03-28T08:31:03.687Z,3.60
2023-03-28T08:33:33.128Z,3.60
2023-03-28T08:36:00.959Z,3.80
2023-03-28T08:38:29.159Z,4.10
2023-03-28T08:41:05.564Z,3.80
2023-03-28T08:44:03.653Z,3.90
2023-03-28T08:46:32.889Z,3.90
2023-03-28T08:49:07.431Z,4.00
2023-03-28T08:51:38.909Z,4.60
2023-03-28T08:54:14.898Z,4.70
2023-03-28T08:56:46.606Z,5.10
2023-03-28T08:59:16.910Z,5.10
2023-03-28T09:01:46.329Z,4.50
2023-03-28T09:04:25.782Z,4.20
2023-03-28T09:06:58.385Z,4.00
2023-03-28T09:09:43.277Z,3.70
2023-03-28T09:12:27.387Z,3.70
2023-03-28T09:15:29.365Z,3.70
2023-03-28T09:18:15.046Z,3.60
2023-03-28T09:20:50.044Z,3.60
2023-03-28T09:23:44.862Z,3.60
2023-03-28T09:26:17.089Z,3.50
2023-03-28T09:28:51.224Z,3.70
2023-03-28T09:31:20.876Z,4.30
2023-03-28T09:33:50.403Z,4.70
2023-03-28T09:36:24.771Z,4.90
2023-03-28T09:38:59.993Z,5.50
2023-03-28T09:41:42.670Z,5.30
2023-03-28T09:44:14.711Z,5.90
2023-03-28T09:46:45.030Z,4.60
2023-03-28T09:49:17.705Z,4.90
2023-03-28T09:51:47.297Z,4.20
2023-03-28T09:54:15.589Z,3.70
2023-03-28T09:56:45.552Z,4.10
2023-03-28T09:59:28.173Z,4.50
2023-03-28T10:01:57.320Z,5.00
2023-03-28T10:04:34.406Z,5.00
2023-03-28T10:07:29.396Z,5.40
2023-03-28T10:10:01.116Z,5.00
2023-03-28T10:12:34.345Z,5.70
2023-03-28T10:15:02.724Z,6.10
2023-03-28T10:17:33.595Z,6.40
2023-03-28T10:20:06.359Z,5.00
2023-03-28T10:22:38.651Z,4.70
2023-03-28T10:25:09.216Z,5.50
2023-03-28T10:27:38.300Z,5.20
2023-03-28T10:30:18.358Z,5.00
2023-03-28T10:32:46.437Z,5.40
2023-03-28T10:35:25.071Z,5.60
2023-03-28T10:37:56.976Z,5.40
2023-03-28T10:40:29.979Z,5.40
2023-03-28T10:42:59.178Z,5.50
2023-03-28T10:45:34.644Z,5.90
2023-03-28T10:48:08.197Z,6.30
2023-03-28T10:50:38.925Z,6.10
2023-03-28T10:53:32.769Z,6.60
2023-03-28T10:56:14.828Z,6.60
2023-03-28T10:58:50.555Z,6.10
2023-03-28T11:01:20.985Z,6.40
2023-03-28T11:04:12.013Z,6.20
2023-03-28T11:06:45.694Z,6.30
2023-03-28T11:09:20.434Z,6.30
2023-03-28T11:11:59.364Z,5.80
2023-03-28T11:14:36.571Z,6.10
2023-03-28T11:17:11.363Z,6.50
2023-03-28T11:19:54.386Z,6.40
2023-03-28T11:22:28.070Z,6.50
2023-03-28T11:25:06.846Z,6.50
2023-03-28T11:27:41.841Z,6.10
2023-03-28T11:30:14.671Z,6.10
2023-03-28T11:32:48.526Z,6.40
2023-03-28T11:35:22.168Z,6.60
2023-03-28T11:38:00.376Z,6.20
2023-03-28T11:40:36.427Z,6.50
2023-03-28T11:43:06.503Z,6.50
2023-03-28T11:45:50.011Z,7.00
2023-03-28T11:48:25.445Z,7.10
2023-03-28T11:51:02.022Z,7.40
2023-03-28T11:53:33.152Z,7.30
2023-03-28T11:56:10.678Z,7.50
2023-03-28T11:58:41.897Z,7.80
2023-03-28T12:01:14.988Z,8.20
2023-03-28T12:03:59.493Z,7.80
2023-03-28T12:06:34.632Z,7.90
2023-03-28T12:09:11.346Z,7.60
2023-03-28T12:11:43.290Z,7.80
2023-03-28T12:14:34.799Z,7.20
2023-03-28T12:17:08.547Z,7.20
2023-03-28T12:19:40.993Z,7.50
2023-03-28T12:22:14.459Z,7.70
2023-03-28T12:24:48.911Z,8.10
2023-03-28T12:27:26.639Z,8.20
2023-03-28T12:30:00.337Z,8.20
2023-03-28T12:32:38.299Z,8.60
2023-03-28T12:35:15.592Z,8.10
2023-03-28T12:37:55.020Z,7.90
2023-03-28T12:40:30.449Z,7.20
2023-03-28T12:43:00.678Z,7.20
2023-03-28T12:45:31.519Z,8.00
2023-03-28T12:48:06.380Z,7.60
2023-03-28T12:50:49.212Z,7.60
2023-03-28T12:53:18.124Z,8.00
2023-03-28T12:55:48.109Z,8.00
2023-03-28T12:58:26.908Z,7.90
2023-03-28T13:01:16.961Z,8.30
2023-03-28T13:03:53.740Z,8.50
2023-03-28T13:06:29.245Z,8.20
2023-03-28T13:09:18.045Z,8.10
2023-03-28T13:11:53.856Z,8.30
2023-03-28T13:14:38.494Z,8.40
2023-03-28T13:17:19.839Z,8.10
2023-03-28T13:19:52.655Z,8.20
2023-03-28T13:22:32.766Z,8.10
2023-03-28T13:25:26.063Z,8.40
2023-03-28T13:27:56.098Z,8.60
2023-03-28T13:30:28.694Z,9.00
2023-03-28T13:32:58.781Z,8.60
2023-03-28T13:35:45.962Z,8.50
2023-03-28T13:38:36.445Z,8.50
2023-03-28T13:41:06.904Z,8.50
2023-03-28T13:43:43.514Z,8.80
2023-03-28T13:46:16.328Z,9.00
2023-03-28T13:48:50.828Z,9.30
2023-03-28T13:51:22.672Z,9.20
2023-03-28T13:53:50.679Z,8.70
2023-03-28T13:56:23.616Z,9.20
2023-03-28T13:58:53.015Z,9.50
2023-03-28T14:01:25.364Z,9.60
2023-03-28T14:03:54.610Z,9.20
2023-03-28T14:06:24.846Z,9.00
2023-03-28T14:08:54.123Z,8.90
2023-03-28T14:11:24.864Z,9.00
2023-03-28T14:14:00.415Z,8.90
2023-03-28T14:16:29.792Z,9.30
2023-03-28T14:18:57.927Z,8.90
2023-03-28T14:21:26.576Z,8.60
2023-03-28T14:23:59.473Z,8.40
2023-03-28T14:26:30.185Z,8.50
2023-03-28T14:29:03.919Z,8.90
2023-03-28T14:31:36.969Z,9.10
2023-03-28T14:34:17.098Z,9.30
2023-03-28T14:36:58.623Z,9.50
2023-03-28T14:39:27.677Z,9.40
2023-03-28T14:41:56.848Z,9.10
2023-03-28T14:44:25.013Z,9.00
2023-03-28T14:46:57.182Z,8.90
2023-03-28T14:49:26.380Z,8.80
2023-03-28T14:51:56.286Z,9.10
2023-03-28T14:54:28.269Z,9.20
2023-03-28T14:56:58.195Z,9.10
2023-03-28T14:59:34.637Z,9.20
2023-03-28T15:02:05.961Z,8.90
2023-03-28T15:04:34.815Z,8.90
2023-03-28T15:07:02.770Z,8.70
2023-03-28T15:09:34.054Z,8.70
2023-03-28T15:12:06.711Z,9.00
2023-03-28T15:14:39.824Z,9.00
2023-03-28T15:17:17.073Z,9.00
2023-03-28T15:19:46.743Z,9.10
2023-03-28T15:22:18.498Z,9.10
2023-03-28T15:24:46.843Z,9.00
2023-03-28T15:27:24.357Z,9.30
2023-03-28T15:29:52.617Z,9.30
2023-03-28T15:32:22.180Z,9.10
2023-03-28T15:34:57.347Z,9.20
2023-03-28T15:37:28.019Z,9.20
2023-03-28T15:40:12.202Z,9.20
2023-03-28T15:42:40.690Z,9.20
2023-03-28T15:45:40.911Z,9.30
2023-03-28T15:48:17.543Z,9.40
2023-03-28T15:50:50.460Z,9.10
2023-03-28T15:53:18.930Z,8.90
2023-03-28T15:55:49.389Z,9.00
2023-03-28T15:58:19.945Z,9.00
2023-03-28T16:00:49.980Z,9.10
2023-03-28T16:03:35.354Z,9.10
2023-03-28T16:06:23.156Z,9.10
2023-03-28T16:08:57.044Z,8.90
2023-03-28T16:11:28.170Z,8.80
2023-03-28T16:13:56.030Z,8.70
2023-03-28T16:16:27.247Z,8.60
2023-03-28T16:18:56.863Z,8.50
2023-03-28T16:21:24.701Z,8.30
2023-03-28T16:23:52.534Z,8.20
2023-03-28T16:26:20.382Z,8.20
2023-03-28T16:28:48.194Z,8.20
2023-03-28T16:31:16.447Z,8.10
2023-03-28T16:33:44.496Z,8.10
2023-03-28T16:36:14.111Z,8.10
2023-03-28T16:38:41.977Z,8.10
2023-03-28T16:41:10.379Z,8.00
2023-03-28T16:43:38.698Z,7.90
2023-03-28T16:46:06.833Z,7.90
2023-03-28T16:48:36.261Z,7.80
2023-03-28T16:51:05.603Z,7.60
2023-03-28T16:53:35.258Z,7.50
2023-03-28T16:56:03.929Z,7.40
2023-03-28T16:58:32.120Z,7.30
2023-03-28T17:01:05.501Z,7.20
2023-03-28T17:03:33.585Z,7.10
2023-03-28T17:06:05.876Z,7.00
2023-03-28T17:08:35.395Z,6.80
2023-03-28T17:11:04.944Z,6.80
2023-03-28T17:13:33.364Z,6.80
2023-03-28T17:16:02.057Z,6.80
2023-03-28T17:18:31.708Z,6.80
2023-03-28T17:21:01.908Z,6.80
2023-03-28T17:23:30.525Z,6.70
2023-03-28T17:26:00.118Z,6.60
2023-03-28T17:28:29.398Z,6.60
2023-03-28T17:30:57.433Z,6.50
2023-03-28T17:33:25.674Z,6.40
2023-03-28T17:35:53.517Z,6.30
2023-03-28T17:38:21.610Z,6.20
2023-03-28T17:40:50.072Z,6.20
2023-03-28T17:43:19.251Z,6.10
2023-03-28T17:45:47.098Z,6.00
2023-03-28T17:48:14.910Z,6.00
2023-03-28T17:50:43.346Z,6.00
2023-03-28T17:53:11.548Z,6.00
2023-03-28T17:55:39.338Z,6.00
2023-03-28T17:58:07.385Z,6.00
2023-03-28T18:00:36.563Z,5.90
2023-03-28T18:03:04.531Z,5.90
2023-03-28T18:05:32.495Z,5.90
2023-03-28T18:08:00.299Z,5.90
2023-03-28T18:10:28.109Z,5.90
2023-03-28T18:12:56.086Z,5.80
2023-03-28T18:15:24.046Z,5.90
2023-03-28T18:17:53.220Z,5.90
2023-03-28T18:20:22.974Z,5.90
2023-03-28T18:22:52.342Z,5.80
2023-03-28T18:25:20.476Z,5.70
2023-03-28T18:27:48.274Z,5.70
2023-03-28T18:30:16.174Z,5.70
2023-03-28T18:32:44.045Z,5.70
2023-03-28T18:35:13.250Z,5.70
2023-03-28T18:37:41.396Z,5.70
2023-03-28T18:40:11.085Z,5.70
2023-03-28T18:42:38.912Z,5.70
2023-03-28T18:45:07.639Z,5.60
2023-03-28T18:47:38.283Z,5.70
2023-03-28T18:50:07.064Z,5.60
2023-03-28T18:52:37.370Z,5.60
2023-03-28T18:55:06.099Z,5.50
2023-03-28T18:57:34.686Z,5.50
2023-03-28T19:00:07.675Z,5.40
2023-03-28T19:02:35.662Z,5.40
2023-03-28T19:05:03.678Z,5.40
2023-03-28T19:07:31.520Z,5.40
2023-03-28T19:10:00.836Z,5.40
2023-03-28T19:12:28.681Z,5.50
2023-03-28T19:14:56.480Z,5.40
2023-03-28T19:17:24.384Z,5.40
2023-03-28T19:19:52.244Z,5.50
2023-03-28T19:22:20.045Z,5.50
2023-03-28T19:24:47.864Z,5.60
2023-03-28T19:27:17.363Z,5.50
2023-03-28T19:29:45.262Z,5.60
2023-03-28T19:32:13.066Z,5.60
2023-03-28T19:34:40.955Z,5.50
2023-03-28T19:37:08.994Z,5.50
2023-03-28T19:39:36.795Z,5.50
2023-03-28T19:42:04.781Z,5.50
2023-03-28T19:44:34.067Z,5.50
2023-03-28T19:47:01.940Z,5.40
2023-03-28T19:49:29.810Z,5.40
2023-03-28T19:51:59.377Z,5.40
2023-03-28T19:54:27.655Z,5.40
2023-03-28T19:56:55.561Z,5.40
2023-03-28T19:59:23.556Z,5.50
2023-03-28T20:01:52.768Z,5.50
2023-03-28T20:04:21.324Z,5.50
2023-03-28T20:06:49.674Z,5.50
2023-03-28T20:09:17.482Z,5.50
2023-03-28T20:11:45.278Z,5.50
2023-03-28T20:14:17.133Z,5.60
2023-03-28T20:16:44.985Z,5.60
2023-03-28T20:19:14.177Z,5.60
2023-03-28T20:21:41.999Z,5.60
2023-03-28T20:24:10.881Z,5.60
2023-03-28T20:26:39.745Z,5.60
2023-03-28T20:29:10.249Z,5.60
2023-03-28T20:31:38.197Z,5.60
2023-03-28T20:34:06.674Z,5.60
2023-03-28T20:36:36.277Z,5.60
2023-03-28T20:39:04.474Z,5.60
2023-03-28T20:41:32.340Z,5.60
2023-03-28T20:44:05.066Z,5.60
2023-03-28T20:46:34.604Z,5.70
2023-03-28T20:49:06.086Z,5.70
2023-03-28T20:51:39.336Z,5.70
2023-03-28T20:54:07.395Z,5.80
2023-03-28T20:56:35.464Z,5.70
2023-03-28T20:59:04.381Z,5.80
2023-03-28T21:01:33.098Z,5.90
2023-03-28T21:04:02.224Z,5.90
2023-03-28T21:06:33.490Z,5.80
2023-03-28T21:09:04.809Z,5.90
2023-03-28T21:11:33.928Z,5.80
2023-03-28T21:14:02.619Z,5.70
2023-03-28T21:16:31.736Z,5.70
2023-03-28T21:19:00.216Z,5.60
2023-03-28T21:21:29.771Z,5.60
2023-03-28T21:23:58.235Z,5.60
2023-03-28T21:26:29.000Z,5.60
2023-03-28T21:28:56.926Z,5.70
2023-03-28T21:31:26.227Z,5.70
2023-03-28T21:33:56.742Z,5.80
2023-03-28T21:36:25.248Z,5.90
2023-03-28T21:38:53.189Z,5.90
2023-03-28T21:41:22.431Z,6.00
2023-03-28T21:43:53.625Z,6.00
2023-03-28T21:46:21.670Z,6.10
2023-03-28T21:48:49.881Z,6.10
2023-03-28T21:51:18.047Z,6.10
2023-03-28T21:53:46.475Z,6.10
2023-03-28T21:56:16.312Z,6.10
2023-03-28T21:58:44.321Z,6.20
2023-03-28T22:01:17.400Z,6.00
2023-03-28T22:03:46.546Z,6.00
2023-03-28T22:06:14.806Z,6.00
2023-03-28T22:08:43.262Z,6.10
2023-03-28T22:11:14.522Z,6.30
2023-03-28T22:13:44.757Z,6.30
2023-03-28T22:16:15.550Z,6.20
2023-03-28T22:18:49.452Z,6.20
2023-03-28T22:21:17.347Z,6.20
2023-03-28T22:23:47.098Z,6.40
2023-03-28T22:26:15.751Z,6.30
2023-03-28T22:28:43.628Z,6.20
2023-03-28T22:31:11.642Z,6.20
2023-03-28T22:33:40.835Z,6.20
2023-03-28T22:36:10.038Z,6.10
2023-03-28T22:38:37.919Z,6.20
2023-03-28T22:41:06.256Z,6.20
2023-03-28T22:43:34.193Z,6.20
2023-03-28T22:46:02.257Z,6.10
2023-03-28T22:48:31.336Z,6.10
2023-03-28T22:51:01.683Z,6.20
2023-03-28T22:53:29.765Z,6.20
2023-03-28T22:55:57.754Z,6.20
2023-03-28T22:58:26.245Z,6.10
2023-03-28T23:00:54.948Z,6.00
2023-03-28T23:03:23.203Z,6.00
2023-03-28T23:05:51.874Z,5.90
2023-03-28T23:08:21.216Z,5.80
2023-03-28T23:10:49.126Z,5.60
2023-03-28T23:13:17.075Z,5.50
2023-03-28T23:15:44.942Z,5.40
2023-03-28T23:18:14.522Z,5.40
2023-03-28T23:20:42.847Z,5.40
2023-03-28T23:23:12.668Z,5.30
2023-03-28T23:25:42.090Z,5.30
2023-03-28T23:28:09.899Z,5.20
2023-03-28T23:30:39.422Z,5.20
2023-03-28T23:33:07.422Z,5.20
2023-03-28T23:35:35.430Z,5.20
2023-03-28T23:38:03.260Z,5.20
2023-03-28T23:40:31.056Z,5.20
2023-03-28T23:43:00.217Z,5.10
2023-03-28T23:45:28.083Z,5.10
2023-03-28T23:47:55.942Z,5.10
2023-03-28T23:50:23.799Z,5.10
2023-03-28T23:52:51.609Z,5.10
2023-03-28T23:55:19.430Z,5.00
2023-03-28T23:57:47.409Z,5.00
